createdAt,value
2023-06-24T00:02:25.209Z,64.73
2023-06-24T00:04:53.301Z,64.61
2023-06-24T00:07:23.368Z,65.13
2023-06-24T00:09:52.562Z,64.86
2023-06-24T00:12:20.826Z,65.42
2023-06-24T00:14:48.875Z,65.37
2023-06-24T00:17:18.044Z,64.92
2023-06-24T00:19:46.045Z,65.47
2023-06-24T00:22:15.648Z,66.07
2023-06-24T00:24:43.846Z,65.52
2023-06-24T00:27:12.941Z,65.87
2023-06-24T00:29:40.407Z,66.21
2023-06-24T00:32:09.320Z,65.90
2023-06-24T00:34:36.921Z,65.84
2023-06-24T00:37:04.825Z,65.40
2023-06-24T00:39:33.136Z,64.95
2023-06-24T00:42:00.615Z,65.01
2023-06-24T00:44:29.464Z,65.39
2023-06-24T00:46:57.098Z,65.28
2023-06-24T00:49:24.631Z,65.31
2023-06-24T00:51:52.603Z,65.30
2023-06-24T00:54:20.209Z,66.12
2023-06-24T00:56:48.630Z,65.25
2023-06-24T00:59:18.507Z,65.53
2023-06-24T01:01:48.437Z,65.29
2023-06-24T01:04:18.682Z,65.98
2023-06-24T01:06:46.358Z,66.02
2023-06-24T01:09:14.507Z,66.10
2023-06-24T01:11:42.017Z,66.04
2023-06-24T01:14:10.577Z,66.23
2023-06-24T01:16:46.605Z,66.78
2023-06-24T01:19:35.582Z,66.12
2023-06-24T01:22:12.737Z,66.56
2023-06-24T01:24:56.999Z,66.34
2023-06-24T01:27:58.155Z,66.91
2023-06-24T01:30:45.115Z,66.95
2023-06-24T01:33:22.289Z,66.44
2023-06-24T01:35:50.532Z,66.55
2023-06-24T01:38:25.099Z,66.52
2023-06-24T01:40:54.061Z,66.08
2023-06-24T01:43:24.271Z,67.41
2023-06-24T01:45:54.612Z,66.84
2023-06-24T01:48:27.181Z,66.71
2023-06-24T01:51:01.026Z,66.75
2023-06-24T01:53:30.471Z,66.76
2023-06-24T01:56:01.260Z,66.03
2023-06-24T01:58:30.002Z,67.04
2023-06-24T02:00:59.076Z,66.97
2023-06-24T02:03:29.706Z,66.62
2023-06-24T02:05:58.638Z,67.68
2023-06-24T02:08:27.431Z,67.10
2023-06-24T02:10:56.001Z,66.61
2023-06-24T02:13:25.004Z,66.67
2023-06-24T02:15:54.026Z,66.92
2023-06-24T02:18:24.383Z,67.02
2023-06-24T02:20:53.981Z,66.75
2023-06-24T02:23:23.209Z,67.26
2023-06-24T02:25:52.281Z,67.22
2023-06-24T02:28:20.347Z,67.51
2023-06-24T02:30:49.351Z,66.30
2023-06-24T02:33:17.161Z,67.67
2023-06-24T02:35:47.029Z,67.40
2023-06-24T02:38:16.163Z,66.87
2023-06-24T02:40:45.344Z,66.61
2023-06-24T02:43:13.439Z,66.39
2023-06-24T02:45:41.360Z,66.58
2023-06-24T02:48:11.060Z,67.24
2023-06-24T02:50:41.728Z,67.55
2023-06-24T02:53:09.824Z,66.98
2023-06-24T02:55:39.571Z,66.85
2023-06-24T02:58:08.959Z,67.54
2023-06-24T03:00:36.846Z,66.82
2023-06-24T03:03:06.307Z,66.92
2023-06-24T03:05:35.021Z,67.16
2023-06-24T03:08:04.685Z,66.99
2023-06-24T03:10:32.242Z,67.72
2023-06-24T03:13:01.114Z,67.69
2023-06-24T03:15:29.327Z,67.22
2023-06-24T03:17:57.237Z,67.07
2023-06-24T03:20:25.368Z,66.92
2023-06-24T03:22:53.470Z,66.95
2023-06-24T03:25:21.005Z,67.02
2023-06-24T03:27:48.484Z,66.85
2023-06-24T03:30:17.337Z,66.31
2023-06-24T03:32:48.231Z,66.44
2023-06-24T03:35:16.555Z,66.21
2023-06-24T03:37:44.034Z,65.67
2023-06-24T03:40:12.322Z,66.37
2023-06-24T03:42:39.806Z,65.30
2023-06-24T03:45:08.376Z,65.71
2023-06-24T03:47:37.191Z,65.50
2023-06-24T03:50:04.903Z,65.58
2023-06-24T03:52:32.418Z,64.69
2023-06-24T03:54:59.906Z,64.12
2023-06-24T03:57:27.418Z,63.96
2023-06-24T03:59:54.932Z,63.71
2023-06-24T04:02:22.866Z,64.77
2023-06-24T04:04:53.108Z,64.50
2023-06-24T04:07:28.257Z,63.91
2023-06-24T04:09:56.926Z,62.69
2023-06-24T04:12:24.487Z,63.22
2023-06-24T04:14:52.259Z,63.34
2023-06-24T04:17:19.995Z,62.55
2023-06-24T04:19:47.564Z,63.05
2023-06-24T04:22:16.436Z,62.68
2023-06-24T04:24:43.919Z,62.49
2023-06-24T04:27:11.410Z,62.07
2023-06-24T04:29:38.933Z,62.48
2023-06-24T04:32:06.941Z,62.11
2023-06-24T04:34:34.483Z,61.96
2023-06-24T04:37:02.010Z,61.95
2023-06-24T04:39:30.863Z,61.84
2023-06-24T04:41:58.377Z,61.07
2023-06-24T04:44:25.847Z,61.57
2023-06-24T04:46:53.656Z,61.42
2023-06-24T04:49:21.156Z,61.07
2023-06-24T04:51:48.700Z,59.94
2023-06-24T04:54:16.165Z,59.80
2023-06-24T04:56:47.311Z,60.19
2023-06-24T04:59:16.303Z,59.08
2023-06-24T05:01:43.783Z,59.21
2023-06-24T05:04:11.297Z,59.30
2023-06-24T05:06:38.842Z,59.21
2023-06-24T05:09:06.628Z,58.33
2023-06-24T05:11:34.091Z,58.80
2023-06-24T05:14:03.169Z,58.17
2023-06-24T05:16:30.622Z,57.89
2023-06-24T05:18:58.124Z,57.50
2023-06-24T05:21:25.617Z,58.34
2023-06-24T05:23:53.096Z,58.62
2023-06-24T05:26:20.570Z,57.17
2023-06-24T05:28:48.061Z,57.78
2023-06-24T05:31:16.881Z,57.67
2023-06-24T05:33:44.356Z,57.14
2023-06-24T05:36:11.804Z,57.62
2023-06-24T05:38:39.287Z,57.17
2023-06-24T05:41:06.764Z,57.93
2023-06-24T05:43:34.317Z,56.90
2023-06-24T05:46:01.790Z,57.62
2023-06-24T05:48:30.652Z,58.40
2023-06-24T05:50:58.147Z,57.54
2023-06-24T05:53:25.769Z,57.28
2023-06-24T05:55:53.278Z,56.67
2023-06-24T05:58:20.780Z,57.47
2023-06-24T06:00:48.284Z,56.90
2023-06-24T06:03:15.854Z,56.55
2023-06-24T06:05:44.737Z,57.69
2023-06-24T06:08:12.210Z,58.14
2023-06-24T06:10:39.700Z,57.28
2023-06-24T06:13:07.359Z,57.12
2023-06-24T06:15:35.157Z,57.41
2023-06-24T06:18:02.957Z,56.78
2023-06-24T06:20:30.467Z,57.35
2023-06-24T06:22:59.480Z,58.04
2023-06-24T06:25:27.059Z,58.28
2023-06-24T06:27:54.606Z,58.55
2023-06-24T06:30:22.405Z,58.15
2023-06-24T06:32:50.000Z,57.08
2023-06-24T06:35:17.513Z,57.92
2023-06-24T06:37:45.864Z,57.37
2023-06-24T06:40:14.931Z,57.38
2023-06-24T06:42:43.260Z,58.16
2023-06-24T06:45:11.609Z,57.86
2023-06-24T06:47:39.336Z,58.17
2023-06-24T06:50:08.795Z,58.11
2023-06-24T06:52:36.464Z,58.38
2023-06-24T06:55:04.017Z,59.02
2023-06-24T06:57:32.901Z,58.68
2023-06-24T07:00:00.424Z,59.00
2023-06-24T07:02:28.002Z,59.99
2023-06-24T07:04:55.643Z,59.91
2023-06-24T07:07:23.194Z,59.12
2023-06-24T07:09:50.739Z,58.68
2023-06-24T07:12:18.420Z,59.19
2023-06-24T07:14:47.376Z,58.58
2023-06-24T07:17:15.498Z,58.19
2023-06-24T07:19:43.008Z,58.26
2023-06-24T07:22:10.534Z,58.65
2023-06-24T07:24:38.117Z,58.65
2023-06-24T07:27:06.234Z,57.82
2023-06-24T07:29:33.789Z,57.74
2023-06-24T07:32:02.811Z,57.99
2023-06-24T07:34:31.231Z,57.76
2023-06-24T07:37:01.457Z,58.52
2023-06-24T07:39:30.840Z,58.88
2023-06-24T07:41:58.328Z,57.40
2023-06-24T07:44:25.794Z,56.86
2023-06-24T07:46:53.321Z,57.91
2023-06-24T07:49:22.119Z,57.46
2023-06-24T07:51:49.647Z,57.49
2023-06-24T07:54:17.346Z,57.95
2023-06-24T07:56:44.857Z,56.76
2023-06-24T07:59:12.363Z,57.21
2023-06-24T08:01:39.854Z,56.82
2023-06-24T08:04:07.394Z,56.93
2023-06-24T08:06:36.561Z,56.85
2023-06-24T08:09:04.110Z,57.40
2023-06-24T08:11:31.872Z,57.64
2023-06-24T08:13:59.376Z,57.57
2023-06-24T08:16:27.434Z,57.45
2023-06-24T08:18:55.142Z,56.98
2023-06-24T08:21:22.617Z,56.97
2023-06-24T08:23:53.337Z,56.55
2023-06-24T08:26:21.907Z,56.04
2023-06-24T08:28:50.259Z,56.67
2023-06-24T08:31:17.844Z,56.67
2023-06-24T08:33:46.665Z,57.13
2023-06-24T08:36:14.374Z,56.97
2023-06-24T08:38:41.903Z,56.57
2023-06-24T08:41:10.803Z,57.92
2023-06-24T08:43:39.922Z,56.15
2023-06-24T08:46:07.436Z,55.98
2023-06-24T08:48:41.120Z,56.22
2023-06-24T08:51:10.625Z,55.43
2023-06-24T08:53:40.698Z,55.38
2023-06-24T08:56:08.513Z,55.07
2023-06-24T08:58:37.587Z,54.46
2023-06-24T09:01:05.335Z,53.53
2023-06-24T09:03:33.065Z,52.59
2023-06-24T09:06:00.696Z,52.68
2023-06-24T09:08:28.217Z,53.10
2023-06-24T09:10:56.585Z,52.46
2023-06-24T09:13:35.509Z,51.13
2023-06-24T09:16:13.559Z,50.67
2023-06-24T09:18:41.093Z,50.33
2023-06-24T09:21:09.601Z,49.65
2023-06-24T09:23:39.701Z,50.02
2023-06-24T09:26:07.373Z,50.50
2023-06-24T09:28:34.854Z,49.35
2023-06-24T09:33:41.803Z,49.52
2023-06-24T09:36:13.759Z,48.31
2023-06-24T09:38:45.315Z,49.21
2023-06-24T09:41:14.519Z,47.72
2023-06-24T09:43:45.787Z,48.99
2023-06-24T09:46:16.646Z,48.05
2023-06-24T09:48:44.772Z,48.54
2023-06-24T09:51:14.335Z,47.38
2023-06-24T09:53:42.685Z,47.89
2023-06-24T09:56:11.932Z,47.80
2023-06-24T09:58:41.246Z,47.01
2023-06-24T10:01:09.026Z,48.28
2023-06-24T10:03:39.179Z,47.35
2023-06-24T10:06:08.597Z,47.02
2023-06-24T10:08:36.498Z,47.03
2023-06-24T10:11:04.122Z,46.53
2023-06-24T10:13:31.830Z,46.62
2023-06-24T10:16:00.086Z,47.99
2023-06-24T10:18:40.259Z,48.16
2023-06-24T10:21:09.398Z,47.80
2023-06-24T10:23:42.695Z,46.20
2023-06-24T10:26:12.424Z,46.72
2023-06-24T10:29:18.437Z,46.33
2023-06-24T10:31:54.405Z,44.93
2023-06-24T10:34:40.474Z,45.30
2023-06-24T10:37:12.278Z,45.67
2023-06-24T10:39:41.792Z,43.99
2023-06-24T10:42:43.678Z,43.48
2023-06-24T10:45:21.760Z,43.65
2023-06-24T10:47:51.404Z,44.17
2023-06-24T10:50:21.629Z,42.89
2023-06-24T10:52:51.266Z,43.53
2023-06-24T10:55:20.041Z,43.01
2023-06-24T10:57:47.624Z,43.30
2023-06-24T11:00:16.572Z,42.47
2023-06-24T11:02:44.547Z,42.67
2023-06-24T11:05:12.153Z,42.35
2023-06-24T11:07:41.520Z,42.92
2023-06-24T11:10:13.794Z,42.54
2023-06-24T11:12:42.751Z,40.07
2023-06-24T11:15:13.344Z,40.17
2023-06-24T11:17:41.483Z,40.66
2023-06-24T11:20:10.351Z,41.40
2023-06-24T11:22:38.039Z,38.73
2023-06-24T11:25:07.706Z,39.00
2023-06-24T11:27:35.272Z,40.07
2023-06-24T11:30:03.876Z,40.47
2023-06-24T11:32:38.236Z,37.39
2023-06-24T11:35:07.905Z,38.00
2023-06-24T11:37:35.491Z,38.66
2023-06-24T11:40:05.694Z,35.58
2023-06-24T11:42:37.463Z,31.66
2023-06-24T11:45:07.622Z,34.13
2023-06-24T11:47:35.790Z,35.01
2023-06-24T11:50:04.425Z,31.41
2023-06-24T11:52:40.290Z,33.62
2023-06-24T11:55:14.230Z,33.96
2023-06-24T11:57:57.860Z,35.23
2023-06-24T12:00:26.964Z,34.29
2023-06-24T12:02:56.152Z,34.73
2023-06-24T12:05:29.438Z,33.82
2023-06-24T12:07:58.924Z,33.71
2023-06-24T12:10:26.737Z,33.66
2023-06-24T12:12:55.620Z,33.89
2023-06-24T12:15:23.865Z,32.91
2023-06-24T12:17:51.470Z,32.95
2023-06-24T12:20:19.497Z,33.49
2023-06-24T12:22:47.535Z,32.21
2023-06-24T12:25:15.037Z,31.84
2023-06-24T12:27:44.389Z,31.42
2023-06-24T12:30:14.440Z,32.27
2023-06-24T12:32:42.281Z,31.75
2023-06-24T12:35:11.526Z,32.42
2023-06-24T12:37:39.238Z,34.06
2023-06-24T12:40:08.056Z,32.15
2023-06-24T12:42:35.718Z,31.87
2023-06-24T12:45:03.382Z,30.36
2023-06-24T12:47:32.313Z,30.75
2023-06-24T12:49:59.867Z,30.19
2023-06-24T12:52:27.346Z,30.29
2023-06-24T12:54:54.856Z,29.88
2023-06-24T12:57:22.361Z,29.98
2023-06-24T12:59:49.865Z,31.89
2023-06-24T13:02:17.347Z,31.31
2023-06-24T13:04:46.223Z,29.67
2023-06-24T13:07:15.978Z,30.58
2023-06-24T13:09:44.407Z,29.67
2023-06-24T13:12:11.922Z,32.44
2023-06-24T13:14:39.467Z,32.40
2023-06-24T13:17:07.526Z,32.40
2023-06-24T13:19:35.044Z,31.78
2023-06-24T13:22:03.876Z,31.35
2023-06-24T13:24:31.496Z,31.43
2023-06-24T13:26:58.999Z,30.25
2023-06-24T13:29:28.148Z,32.20
2023-06-24T13:31:55.619Z,30.80
2023-06-24T13:34:23.109Z,32.99
2023-06-24T13:36:50.590Z,32.90
2023-06-24T13:39:19.454Z,32.38
2023-06-24T13:41:47.371Z,31.42
2023-06-24T13:44:15.460Z,33.16
2023-06-24T13:46:42.990Z,31.06
2023-06-24T13:49:10.692Z,30.13
2023-06-24T13:51:38.960Z,31.07
2023-06-24T13:54:06.544Z,31.05
2023-06-24T13:56:35.435Z,28.31
2023-06-24T13:59:03.630Z,29.39
2023-06-24T14:01:32.486Z,28.87
2023-06-24T14:04:00.276Z,29.25
2023-06-24T14:06:28.191Z,27.88
2023-06-24T14:08:55.956Z,28.50
2023-06-24T14:11:23.563Z,29.58
2023-06-24T14:13:53.793Z,30.60
2023-06-24T14:16:22.417Z,30.11
2023-06-24T14:18:49.946Z,29.90
2023-06-24T14:21:17.495Z,28.93
2023-06-24T14:23:45.207Z,29.80
2023-06-24T14:26:12.724Z,28.55
2023-06-24T14:28:40.220Z,27.27
2023-06-24T14:31:09.105Z,27.71
2023-06-24T14:33:36.655Z,27.92
2023-06-24T14:36:04.468Z,27.56
2023-06-24T14:38:31.988Z,29.08
2023-06-24T14:40:59.488Z,28.32
2023-06-24T14:43:27.039Z,28.76
2023-06-24T14:45:54.579Z,27.48
2023-06-24T14:48:23.447Z,28.10
2023-06-24T14:50:51.317Z,27.54
2023-06-24T14:53:18.825Z,27.65
2023-06-24T14:55:46.319Z,27.96
2023-06-24T14:58:15.040Z,26.96
2023-06-24T15:00:43.094Z,27.30
2023-06-24T15:03:10.749Z,27.25
2023-06-24T15:05:40.305Z,26.94
2023-06-24T15:08:07.818Z,26.64
2023-06-24T15:10:35.573Z,27.39
2023-06-24T15:13:03.223Z,27.15
2023-06-24T15:15:30.714Z,25.81
2023-06-24T15:17:58.282Z,26.45
2023-06-24T15:20:25.941Z,27.99
2023-06-24T15:22:54.777Z,27.89
2023-06-24T15:25:22.243Z,26.71
2023-06-24T15:27:49.965Z,26.17
2023-06-24T15:30:18.233Z,27.12
2023-06-24T15:32:47.215Z,26.53
2023-06-24T15:35:14.839Z,27.00
2023-06-24T15:37:42.335Z,26.96
2023-06-24T15:40:12.157Z,26.15
2023-06-24T15:42:39.631Z,25.55
2023-06-24T15:45:07.978Z,26.52
2023-06-24T15:47:37.932Z,25.59
2023-06-24T15:50:07.288Z,26.52
2023-06-24T15:52:34.825Z,25.95
2023-06-24T15:55:02.405Z,25.55
2023-06-24T15:57:31.298Z,27.40
2023-06-24T15:59:58.785Z,27.95
2023-06-24T16:02:26.374Z,27.27
2023-06-24T16:04:54.035Z,27.74
2023-06-24T16:07:21.661Z,27.03
2023-06-24T16:09:49.202Z,28.14
2023-06-24T16:12:17.799Z,28.12
2023-06-24T16:14:46.633Z,28.85
2023-06-24T16:17:14.105Z,29.28
2023-06-24T16:19:41.646Z,28.53
2023-06-24T16:22:09.162Z,30.17
2023-06-24T16:24:36.927Z,30.18
2023-06-24T16:27:05.288Z,28.71
2023-06-24T16:29:32.782Z,29.08
2023-06-24T16:32:02.165Z,29.52
2023-06-24T16:34:30.850Z,30.28
2023-06-24T16:36:58.435Z,30.00
2023-06-24T16:39:25.927Z,30.04
2023-06-24T16:41:53.462Z,29.80
2023-06-24T16:44:20.981Z,29.10
2023-06-24T16:46:48.652Z,31.06
2023-06-24T16:49:17.513Z,30.44
2023-06-24T16:51:45.005Z,31.59
2023-06-24T16:54:12.491Z,32.23
2023-06-24T16:56:39.992Z,31.55
2023-06-24T16:59:07.560Z,30.67
2023-06-24T17:01:35.161Z,30.85
2023-06-24T17:04:02.778Z,32.61
2023-06-24T17:06:33.057Z,30.86
2023-06-24T17:09:00.805Z,31.60
2023-06-24T17:11:28.485Z,31.37
2023-06-24T17:13:55.998Z,31.71
2023-06-24T17:16:23.794Z,32.91
2023-06-24T17:18:51.305Z,32.38
2023-06-24T17:21:18.825Z,31.73
2023-06-24T17:23:47.770Z,32.54
2023-06-24T17:26:15.350Z,33.33
2023-06-24T17:28:43.796Z,33.12
2023-06-24T17:31:11.556Z,32.66
2023-06-24T17:33:39.098Z,32.49
2023-06-24T17:36:07.010Z,32.81
2023-06-24T17:38:34.481Z,34.12
2023-06-24T17:41:03.325Z,34.47
2023-06-24T17:43:30.824Z,35.16
2023-06-24T17:45:58.383Z,35.36
2023-06-24T17:48:25.905Z,35.21
2023-06-24T17:50:53.478Z,35.07
2023-06-24T17:53:21.843Z,34.10
2023-06-24T17:55:49.359Z,36.02
2023-06-24T17:58:18.198Z,36.49
2023-06-24T18:00:45.683Z,35.29
2023-06-24T18:03:13.271Z,34.98
2023-06-24T18:05:40.738Z,37.67
2023-06-24T18:08:08.297Z,36.43
2023-06-24T18:10:36.975Z,34.48
2023-06-24T18:13:04.869Z,36.46
2023-06-24T18:15:33.748Z,36.76
2023-06-24T18:18:01.319Z,36.17
2023-06-24T18:20:28.853Z,38.37
2023-06-24T18:22:56.384Z,38.90
2023-06-24T18:25:23.943Z,39.32
2023-06-24T18:27:51.482Z,38.21
2023-06-24T18:30:19.185Z,38.15
2023-06-24T18:32:48.062Z,40.22
2023-06-24T18:35:15.619Z,38.41
2023-06-24T18:37:43.129Z,39.26
2023-06-24T18:40:11.953Z,39.77
2023-06-24T18:42:39.460Z,39.79
2023-06-24T18:45:07.997Z,40.71
2023-06-24T18:47:35.568Z,41.70
2023-06-24T18:50:04.529Z,41.82
2023-06-24T18:52:32.002Z,40.16
2023-06-24T18:54:59.496Z,41.21
2023-06-24T18:57:26.990Z,40.60
2023-06-24T18:59:54.668Z,40.76
2023-06-24T19:02:22.218Z,41.80
2023-06-24T19:04:49.833Z,42.70
2023-06-24T19:07:18.693Z,42.49
2023-06-24T19:09:46.215Z,43.19
2023-06-24T19:12:13.897Z,43.17
2023-06-24T19:14:42.230Z,42.99
2023-06-24T19:17:09.713Z,43.91
2023-06-24T19:19:37.197Z,43.69
2023-06-24T19:22:06.352Z,44.45
2023-06-24T19:24:38.453Z,44.64
2023-06-24T19:27:06.564Z,45.45
2023-06-24T19:29:34.085Z,44.33
2023-06-24T19:32:01.734Z,44.58
2023-06-24T19:34:29.257Z,46.58
2023-06-24T19:36:56.824Z,46.22
2023-06-24T19:39:24.329Z,45.84
2023-06-24T19:41:53.176Z,45.96
2023-06-24T19:44:20.665Z,46.96
2023-06-24T19:46:48.182Z,46.17
2023-06-24T19:49:15.826Z,46.11
2023-06-24T19:51:43.353Z,46.82
2023-06-24T19:54:10.946Z,46.93
2023-06-24T19:56:38.437Z,47.50
2023-06-24T19:59:07.253Z,47.01
2023-06-24T20:01:34.817Z,46.87
2023-06-24T20:04:02.347Z,46.68
2023-06-24T20:06:29.988Z,46.40
2023-06-24T20:08:57.548Z,48.17
2023-06-24T20:11:25.079Z,47.15
2023-06-24T20:13:52.575Z,47.57
2023-06-24T20:16:21.410Z,48.42
2023-06-24T20:18:50.096Z,48.32
2023-06-24T20:21:17.646Z,48.24
2023-06-24T20:23:45.121Z,48.12
2023-06-24T20:26:12.613Z,47.72
2023-06-24T20:28:40.190Z,48.30
2023-06-24T20:31:07.826Z,49.04
2023-06-24T20:33:36.694Z,49.19
2023-06-24T20:36:04.491Z,49.75
2023-06-24T20:38:31.999Z,49.50
2023-06-24T20:40:59.954Z,49.04
2023-06-24T20:43:27.772Z,48.67
2023-06-24T20:45:56.632Z,48.49
2023-06-24T20:48:24.528Z,49.69
2023-06-24T20:50:53.648Z,50.37
2023-06-24T20:53:21.783Z,48.96
2023-06-24T20:55:49.300Z,49.18
2023-06-24T20:58:16.819Z,49.84
2023-06-24T21:00:44.284Z,50.13
2023-06-24T21:03:11.858Z,50.05
2023-06-24T21:05:39.454Z,48.95
2023-06-24T21:08:08.310Z,48.68
2023-06-24T21:10:35.971Z,49.20
2023-06-24T21:13:03.668Z,49.69
2023-06-24T21:15:31.168Z,49.68
2023-06-24T21:17:58.658Z,49.34
2023-06-24T21:20:26.271Z,48.92
2023-06-24T21:22:53.889Z,48.94
2023-06-24T21:25:22.839Z,48.73
2023-06-24T21:27:51.329Z,48.94
2023-06-24T21:30:18.848Z,49.43
2023-06-24T21:32:46.357Z,49.43
2023-06-24T21:35:14.085Z,49.64
2023-06-24T21:37:41.583Z,49.67
2023-06-24T21:40:10.005Z,50.10
2023-06-24T21:42:38.854Z,48.96
2023-06-24T21:45:07.746Z,49.68
2023-06-24T21:47:36.573Z,49.72
2023-06-24T21:50:04.425Z,50.34
2023-06-24T21:52:32.245Z,50.47
2023-06-24T21:54:59.779Z,49.83
2023-06-24T21:57:27.285Z,50.21
2023-06-24T21:59:56.169Z,51.09
2023-06-24T22:02:23.781Z,50.80
2023-06-24T22:04:51.327Z,50.39
2023-06-24T22:07:18.966Z,50.21
2023-06-24T22:09:46.581Z,51.15
2023-06-24T22:12:14.062Z,50.94
2023-06-24T22:14:42.099Z,50.79
2023-06-24T22:17:10.968Z,51.33
2023-06-24T22:19:38.462Z,51.68
2023-06-24T22:22:06.193Z,51.53
2023-06-24T22:24:33.663Z,50.63
2023-06-24T22:27:01.191Z,50.67
2023-06-24T22:29:28.710Z,50.49
2023-06-24T22:31:56.179Z,51.61
2023-06-24T22:34:25.065Z,51.63
2023-06-24T22:36:52.648Z,50.96
2023-06-24T22:39:20.118Z,52.17
2023-06-24T22:41:47.857Z,52.68
2023-06-24T22:44:16.189Z,53.82
2023-06-24T22:46:43.762Z,53.58
2023-06-24T22:49:11.294Z,53.73
2023-06-24T22:51:40.138Z,52.72
2023-06-24T22:54:07.618Z,53.67
2023-06-24T22:56:35.095Z,53.68
2023-06-24T22:59:02.582Z,53.67
2023-06-24T23:01:30.120Z,54.24
2023-06-24T23:03:58.253Z,55.32
2023-06-24T23:06:26.232Z,55.50
2023-06-24T23:08:56.024Z,56.03
2023-06-24T23:11:25.903Z,56.31
2023-06-24T23:13:54.290Z,57.02
2023-06-24T23:16:22.028Z,56.85
2023-06-24T23:18:50.138Z,56.00
2023-06-24T23:21:18.131Z,56.26
2023-06-24T23:23:46.031Z,55.72
2023-06-24T23:26:17.804Z,55.93
2023-06-24T23:28:47.349Z,56.02
2023-06-24T23:31:17.018Z,57.27
2023-06-24T23:33:45.865Z,57.12
2023-06-24T23:36:13.988Z,56.50
2023-06-24T23:38:41.872Z,56.95
2023-06-24T23:41:09.624Z,57.37
2023-06-24T23:43:38.942Z,57.18
2023-06-24T23:46:07.062Z,57.14
2023-06-24T23:48:34.584Z,56.63
2023-06-24T23:51:02.244Z,56.54
2023-06-24T23:53:29.740Z,56.75
2023-06-24T23:55:57.230Z,57.43
2023-06-24T23:58:24.732Z,56.69
